Time;durP1;ratioP1;P1;durP2;ratioP2;P2;SDS_P1;SDS_P2;PMS_P1;PMS_P2;Temp;Humidity;BMP_temperature;BMP_pressure;BME280_temperature;BME280_humidity;BME280_pressure;Samples;Min_cycle;Max_cycle;Signal;HPM_P1;HPM_P2
2021/03/25 00:01:55;;;;;;;15.80;7.87;;;;;;;12.40;55.75;101328.16;5000162;28;20495;-64
2021/03/25 00:04:22;;;;;;;17.47;8.07;;;;;;;12.43;55.82;101333.22;4996621;28;20053;-65
2021/03/25 00:06:55;;;;;;;19.60;9.17;;;;;;;12.35;55.69;101310.50;5001926;28;20073;-64
2021/03/25 00:09:37;;;;;;;15.53;8.10;;;;;;;12.45;55.64;101325.38;5010604;28;20042;-63
2021/03/25 00:12:04;;;;;;;13.93;7.93;;;;;;;12.47;55.70;101323.13;4998180;28;20475;-64
2021/03/25 00:14:31;;;;;;;13.20;7.37;;;;;;;12.47;55.74;101322.28;4999032;28;20085;-64
2021/03/25 00:17:00;;;;;;;11.27;6.43;;;;;;;12.43;55.75;101309.97;5006782;28;20565;-62
2021/03/25 00:19:35;;;;;;;13.27;7.15;;;;;;;12.48;55.47;101319.25;5013789;28;20396;-62
2021/03/25 00:22:02;;;;;;;14.60;7.97;;;;;;;12.54;55.62;101311.66;5005111;28;20505;-59
2021/03/25 00:24:28;;;;;;;28.30;11.97;;;;;;;12.48;55.72;101324.00;5002658;28;20046;-61
2021/03/25 00:26:55;;;;;;;14.73;7.27;;;;;;;12.43;55.80;101316.41;4997211;28;20453;-61
2021/03/25 00:29:21;;;;;;;15.17;7.47;;;;;;;12.47;56.10;101313.88;5002805;28;20049;-60
2021/03/25 00:31:50;;;;;;;11.73;6.93;;;;;;;12.52;55.89;101308.31;4999324;28;20520;-61
2021/03/25 00:34:17;;;;;;;12.67;7.30;;;;;;;12.53;55.50;101304.41;5011197;28;20663;-60
2021/03/25 00:36:44;;;;;;;12.90;7.30;;;;;;;12.49;55.88;101304.09;5004555;28;20108;-61
2021/03/25 00:39:13;;;;;;;10.63;5.97;;;;;;;12.53;55.91;101299.63;4999673;28;20042;-62
2021/03/25 00:41:39;;;;;;;15.77;6.60;;;;;;;12.56;55.88;101287.88;5011576;28;20494;-60
2021/03/25 00:44:10;;;;;;;15.27;7.17;;;;;;;12.50;55.95;101277.75;5013754;28;20037;-62
2021/03/25 00:46:40;;;;;;;13.20;5.93;;;;;;;12.62;56.10;101287.91;5006487;28;20160;-60
2021/03/25 00:49:08;;;;;;;10.40;5.70;;;;;;;12.53;56.13;101287.59;5007212;28;20041;-59
2021/03/25 00:51:35;;;;;;;12.50;5.70;;;;;;;12.26;56.66;101271.81;5003532;28;20534;-62
2021/03/25 00:54:02;;;;;;;12.20;6.60;;;;;;;12.17;57.14;101265.06;5010158;28;20070;-61
2021/03/25 00:56:30;;;;;;;17.10;6.50;;;;;;;12.29;56.99;101273.22;5012597;28;20045;-62
2021/03/25 00:58:57;;;;;;;12.40;6.53;;;;;;;12.23;56.97;101272.34;5001070;28;20483;-60
2021/03/25 01:01:25;;;;;;;15.33;6.43;;;;;;;12.31;56.92;101279.41;5002709;28;20050;-62
2021/03/25 01:03:51;;;;;;;11.17;5.87;;;;;;;12.20;56.69;101260.84;5011991;28;20057;-63
2021/03/25 01:06:18;;;;;;;13.80;5.90;;;;;;;12.29;57.07;101287.22;5011263;28;20136;-62
2021/03/25 01:08:46;;;;;;;9.27;5.17;;;;;;;12.25;57.21;101280.50;5008601;28;20133;-64
2021/03/25 01:11:17;;;;;;;11.80;6.00;;;;;;;12.17;57.37;101278.19;5007542;28;20048;-63
2021/03/25 01:13:46;;;;;;;11.20;6.17;;;;;;;12.14;57.42;101268.41;5001782;28;20052;-64
2021/03/25 01:16:35;;;;;;;10.40;5.40;;;;;;;12.13;57.20;101265.88;5004166;28;20056;-61
2021/03/25 01:19:06;;;;;;;12.77;6.10;;;;;;;12.20;57.04;101272.06;5003541;28;20049;-62
2021/03/25 01:21:33;;;;;;;10.77;6.40;;;;;;;12.23;57.08;101271.50;5003031;28;20045;-62
2021/03/25 01:23:59;;;;;;;17.43;6.57;;;;;;;12.25;56.97;101269.28;5002055;28;20055;-62
2021/03/25 01:26:26;;;;;;;14.13;7.10;;;;;;;12.20;57.05;101260.84;5000676;28;20056;-62
2021/03/25 01:28:52;;;;;;;11.80;6.07;;;;;;;12.17;57.38;101267.88;5004636;28;20048;-62
2021/03/25 01:31:18;;;;;;;12.17;5.73;;;;;;;12.08;57.41;101256.34;5005647;28;20046;-62
2021/03/25 01:33:45;;;;;;;13.67;6.00;;;;;;;12.11;57.28;101262.53;5005782;28;20809;-63
2021/03/25 01:36:11;;;;;;;12.27;6.10;;;;;;;12.16;57.53;101248.53;5007756;28;20094;-63
2021/03/25 01:38:38;;;;;;;13.83;7.33;;;;;;;12.09;57.29;101226.38;5010232;28;20132;-62
2021/03/25 01:41:16;;;;;;;13.47;6.33;;;;;;;12.27;56.96;101239.91;4998848;28;20706;-63
2021/03/25 01:43:46;;;;;;;13.18;7.45;;;;;;;12.28;56.92;101241.56;5000034;28;20050;-63
2021/03/25 01:46:24;;;;;;;11.43;7.03;;;;;;;12.21;56.98;101235.41;4997364;28;20133;-63
2021/03/25 01:48:56;;;;;;;11.03;5.70;;;;;;;11.97;57.44;101218.22;5006613;28;20107;-63
2021/03/25 01:52:00;;;;;;;9.93;5.23;;;;;;;11.98;57.70;101233.91;5013885;28;20048;-64
2021/03/25 01:54:54;;;;;;;10.57;5.67;;;;;;;11.92;58.31;101226.59;4995375;28;20506;-64
2021/03/25 01:57:39;;;;;;;9.10;5.30;;;;;;;11.84;58.59;101235.53;5006160;28;20050;-63
2021/03/25 02:00:09;;;;;;;12.13;5.17;;;;;;;11.73;59.01;101233.75;5006681;28;20064;-62
2021/03/25 02:02:43;;;;;;;9.13;4.70;;;;;;;11.61;59.14;101218.00;5006684;28;20050;-63
2021/03/25 02:05:48;;;;;;;7.90;4.87;;;;;;;11.74;59.10;101225.09;5002494;28;20058;-61
2021/03/25 02:08:25;;;;;;;13.23;5.87;;;;;;;11.77;58.88;101223.72;5007363;28;20535;-62
2021/03/25 02:11:06;;;;;;;11.70;6.10;;;;;;;11.74;58.32;101207.47;5004787;28;20049;-61
2021/03/25 02:13:46;;;;;;;12.57;5.83;;;;;;;11.84;58.00;101219.56;5003469;28;20659;-62
2021/03/25 02:16:20;;;;;;;14.33;8.33;;;;;;;11.92;58.02;101221.00;5000925;28;20559;-62
2021/03/25 02:19:01;;;;;;;17.07;7.80;;;;;;;11.94;57.54;101224.38;4994626;28;20388;-63
2021/03/25 02:21:33;;;;;;;;;;;;;;;12.03;57.11;101222.75;5003980;28;20053;-64
2021/03/25 02:24:22;;;;;;;16.77;7.20;;;;;;;11.92;56.97;101203.38;4994426;28;19932;-63
2021/03/25 02:27:10;;;;;;;11.80;6.13;;;;;;;11.87;57.20;101203.34;5004971;28;20414;-63
2021/03/25 02:30:00;;;;;;;15.13;5.93;;;;;;;11.72;57.53;101206.88;4995333;28;20138;-64
2021/03/25 02:32:31;;;;;;;10.40;5.93;;;;;;;11.55;58.31;101195.88;5004095;28;20045;-61
2021/03/25 02:35:05;;;;;;;17.40;6.27;;;;;;;11.56;58.31;101208.78;4999926;28;20070;-62
2021/03/25 02:37:35;;;;;;;14.77;6.67;;;;;;;11.56;57.95;101205.97;5003601;28;20056;-63
2021/03/25 02:40:10;;;;;;;;;;;;;;;11.71;57.68;101203.25;4999641;28;20062;-62
2021/03/25 02:42:55;;;;;;;12.10;6.33;;;;;;;11.65;57.63;101197.88;5000363;28;20343;-63
2021/03/25 02:45:27;;;;;;;12.80;6.83;;;;;;;11.51;58.13;101192.78;4997481;28;20188;-65
2021/03/25 02:48:02;;;;;;;9.20;6.40;;;;;;;11.27;58.78;101185.94;5003179;28;20502;-64
2021/03/25 02:50:31;;;;;;;8.63;5.40;;;;;;;11.24;59.14;101197.66;5004931;28;20508;-62
2021/03/25 02:53:09;;;;;;;9.97;6.27;;;;;;;11.18;59.39;101182.81;5001581;28;20055;-62
2021/03/25 02:55:37;;;;;;;13.40;5.93;;;;;;;11.08;59.49;101178.00;4997393;28;20097;-60
2021/03/25 02:58:09;;;;;;;14.10;6.90;;;;;;;10.91;59.85;101180.09;5006297;28;20068;-60
2021/03/25 03:00:40;;;;;;;15.33;5.73;;;;;;;10.86;60.10;101182.84;5006964;28;20049;-61
2021/03/25 03:03:12;;;;;;;12.17;6.80;;;;;;;10.73;60.55;101181.31;5000431;28;20053;-59
2021/03/25 03:05:41;;;;;;;13.23;5.67;;;;;;;10.60;60.73;101176.22;5007378;28;20050;-60
2021/03/25 03:08:17;;;;;;;13.30;5.33;;;;;;;10.50;60.65;101176.97;4999109;28;20411;-61
2021/03/25 03:11:00;;;;;;;14.03;6.70;;;;;;;10.57;60.58;101187.91;5000821;28;20056;-60
2021/03/25 03:13:30;;;;;;;11.50;5.93;;;;;;;10.66;60.30;101181.56;5007131;28;20512;-63
2021/03/25 03:16:07;;;;;;;12.07;6.22;;;;;;;10.64;60.36;101174.56;4992347;28;20049;-63
2021/03/25 03:18:47;;;;;;;12.37;6.77;;;;;;;10.63;60.41;101170.06;5001442;28;20479;-61
2021/03/25 03:21:23;;;;;;;9.30;6.37;;;;;;;10.64;60.25;101175.41;5005457;28;20116;-61
2021/03/25 03:23:51;;;;;;;11.23;6.13;;;;;;;10.61;60.00;101159.19;5004212;28;20050;-59
2021/03/25 03:26:30;;;;;;;12.43;5.43;;;;;;;10.50;60.30;101160.19;5002478;28;20049;-62
2021/03/25 03:29:04;;;;;;;11.53;5.70;;;;;;;10.48;60.58;101162.41;5007514;28;20042;-62
2021/03/25 03:31:41;;;;;;;11.23;6.07;;;;;;;10.34;61.08;101159.19;4986566;28;20413;-62
2021/03/25 03:34:18;;;;;;;10.53;5.87;;;;;;;10.21;61.98;101152.06;4999856;28;20462;-62
2021/03/25 03:36:47;;;;;;;11.13;6.77;;;;;;;10.13;61.93;101158.13;4999989;28;20046;-63
2021/03/25 03:39:22;;;;;;;9.87;6.23;;;;;;;10.07;62.03;101150.78;5001909;28;20046;-63
2021/03/25 03:41:57;;;;;;;14.23;5.63;;;;;;;10.00;62.57;101161.31;4997332;28;20054;-63
2021/03/25 03:44:34;;;;;;;10.80;5.85;;;;;;;9.86;62.87;101143.31;5003732;28;20042;-63
2021/03/25 03:47:03;;;;;;;8.93;5.27;;;;;;;9.68;63.49;101125.81;4994694;28;20060;-63
2021/03/25 03:49:39;;;;;;;9.57;5.57;;;;;;;9.77;63.62;101161.59;4998676;28;20466;-63
2021/03/25 03:52:12;;;;;;;12.90;7.07;;;;;;;9.73;63.88;101147.34;5009073;28;22021;-61
2021/03/25 03:54:39;;;;;;;9.97;4.43;;;;;;;9.72;63.91;101151.25;4997497;28;20125;-62
2021/03/25 03:57:13;;;;;;;15.87;6.80;;;;;;;9.59;64.11;101127.38;4994914;28;20077;-61
2021/03/25 03:59:45;;;;;;;9.83;6.57;;;;;;;9.78;63.81;101152.13;5000260;28;20045;-62
2021/03/25 04:02:39;;;;;;;9.20;5.80;;;;;;;9.68;63.74;101136.97;4997403;28;20121;-61
2021/03/25 04:05:24;;;;;;;13.87;7.63;;;;;;;9.75;63.43;101134.00;5004399;28;20074;-62
2021/03/25 04:08:16;;;;;;;12.30;7.17;;;;;;;9.93;63.19;101139.22;5001074;28;20053;-62
2021/03/25 04:10:51;;;;;;;11.30;6.90;;;;;;;9.94;62.98;101146.47;5007020;28;20069;-62
2021/03/25 04:13:55;;;;;;;11.23;6.80;;;;;;;9.94;63.10;101143.69;5003777;28;20057;-62
2021/03/25 04:16:29;;;;;;;13.03;7.07;;;;;;;9.87;63.35;101136.63;5006097;28;20498;-61
2021/03/25 04:19:38;;;;;;;12.53;6.53;;;;;;;9.88;63.50;101141.09;5009348;28;20218;-63
2021/03/25 04:22:08;;;;;;;13.43;7.33;;;;;;;9.88;63.25;101146.66;4949221;28;20047;-65
2021/03/25 04:24:50;;;;;;;10.95;6.50;;;;;;;9.84;63.56;101145.50;4994185;28;20054;-64
2021/03/25 04:27:28;;;;;;;18.30;6.63;;;;;;;9.85;63.52;101147.22;4984929;28;20479;-62
2021/03/25 04:30:03;;;;;;;13.47;6.07;;;;;;;9.78;63.40;101141.84;5010592;28;20049;-61
2021/03/25 04:32:29;;;;;;;9.57;5.93;;;;;;;9.82;63.45;101144.94;5003210;28;20060;-61
2021/03/25 04:34:59;;;;;;;10.70;6.17;;;;;;;9.77;63.60;101144.88;4988161;28;20041;-61
2021/03/25 04:37:29;;;;;;;10.35;5.13;;;;;;;9.72;63.55;101152.09;5007078;28;20049;-62
2021/03/25 04:39:58;;;;;;;10.60;5.50;;;;;;;9.49;64.11;101138.41;5010415;28;20046;-61
2021/03/25 04:42:25;;;;;;;9.27;4.87;;;;;;;9.52;64.60;101148.19;5005679;28;20490;-60
2021/03/25 04:45:17;;;;;;;10.93;5.47;;;;;;;9.42;65.01;101143.31;5000597;28;20050;-59
2021/03/25 04:47:52;;;;;;;11.63;5.03;;;;;;;9.38;65.10;101136.59;4999534;28;20128;-62
2021/03/25 04:50:25;;;;;;;10.00;6.03;;;;;;;9.42;64.62;101140.53;5003427;28;20050;-61
2021/03/25 04:53:07;;;;;;;12.30;6.57;;;;;;;9.48;64.35;101142.28;5017552;28;20056;-61
2021/03/25 04:55:36;;;;;;;10.37;6.70;;;;;;;9.55;63.99;101144.91;5011378;28;20061;-62
2021/03/25 04:58:09;;;;;;;10.33;6.07;;;;;;;9.38;64.15;101117.06;5001673;28;20057;-61
2021/03/25 05:00:39;;;;;;;9.93;5.67;;;;;;;9.39;64.25;101124.31;5005416;28;20077;-60
2021/03/25 05:03:17;;;;;;;12.48;6.90;;;;;;;9.56;63.90;101139.03;5004636;28;20038;-60
2021/03/25 05:05:44;;;;;;;9.47;6.10;;;;;;;9.43;64.03;101137.47;5010265;28;20053;-60
2021/03/25 05:08:20;;;;;;;11.30;5.87;;;;;;;9.34;64.33;101127.06;5002649;28;20041;-61
2021/03/25 05:11:04;;;;;;;10.17;6.63;;;;;;;9.33;64.63;101128.97;5007225;28;20046;-60
2021/03/25 05:13:33;;;;;;;10.17;6.03;;;;;;;9.09;64.67;101116.38;5009368;28;20475;-61
2021/03/25 05:16:30;;;;;;;13.27;6.65;;;;;;;9.22;64.98;101139.16;5006157;28;20050;-61
2021/03/25 05:19:16;;;;;;;12.60;6.37;;;;;;;9.19;65.07;101139.66;5004659;28;20064;-63
2021/03/25 05:22:02;;;;;;;13.03;5.90;;;;;;;9.17;65.08;101141.88;4971438;28;20076;-62
2021/03/25 05:24:58;;;;;;;12.57;6.57;;;;;;;9.15;65.25;101137.66;5002267;28;20050;-61
2021/03/25 05:27:36;;;;;;;9.90;5.50;;;;;;;9.16;64.88;101143.00;4995897;28;20049;-60
2021/03/25 05:30:07;;;;;;;11.67;6.87;;;;;;;9.20;64.75;101135.78;5009605;28;20145;-60
2021/03/25 05:32:40;;;;;;;14.73;6.73;;;;;;;9.24;64.50;101147.28;5012810;28;20045;-60
2021/03/25 05:35:10;;;;;;;14.47;8.30;;;;;;;9.17;64.45;101132.69;5007300;28;20479;-60
2021/03/25 05:37:36;;;;;;;15.80;8.17;;;;;;;9.35;63.67;101132.38;5007212;28;20046;-60
2021/03/25 05:40:12;;;;;;;14.10;7.60;;;;;;;9.55;63.34;101137.38;5013490;28;20045;-61
2021/03/25 05:42:50;;;;;;;15.63;7.43;;;;;;;9.80;62.76;101149.94;5010488;28;20060;-61
2021/03/25 05:45:35;;;;;;;9.83;6.57;;;;;;;9.69;63.11;101149.81;5002714;28;20056;-61
2021/03/25 05:48:17;;;;;;;9.73;6.10;;;;;;;9.57;63.35;101151.91;5010828;28;20041;-60
2021/03/25 05:51:21;;;;;;;9.37;5.23;;;;;;;9.46;63.66;101152.84;4994480;28;20054;-61
2021/03/25 05:54:06;;;;;;;9.47;6.23;;;;;;;9.44;63.58;101157.88;4998638;28;22466;-60
2021/03/25 05:56:50;;;;;;;13.03;6.37;;;;;;;9.44;63.43;101152.28;4999929;28;20068;-60
2021/03/25 05:59:20;;;;;;;12.87;5.87;;;;;;;9.33;63.61;101151.28;5016654;28;20056;-60
2021/03/25 06:02:21;;;;;;;16.20;5.80;;;;;;;9.24;64.28;101153.69;5010474;28;20038;-60
2021/03/25 06:04:52;;;;;;;10.13;5.67;;;;;;;9.12;64.56;101154.88;4983490;28;20042;-60
2021/03/25 06:07:57;;;;;;;12.30;6.40;;;;;;;9.13;64.44;101153.81;5002553;28;20046;-61
2021/03/25 06:10:42;;;;;;;10.10;5.33;;;;;;;9.08;64.43;101153.72;5004613;28;20056;-59
2021/03/25 06:13:39;;;;;;;15.70;5.80;;;;;;;9.11;64.24;101159.63;5009562;28;20100;-51
2021/03/25 06:16:21;;;;;;;11.20;6.17;;;;;;;9.23;63.86;101176.22;5000964;28;20078;-50
2021/03/25 06:18:58;;;;;;;11.60;6.73;;;;;;;9.34;63.47;101180.03;5003248;28;20054;-55
2021/03/25 06:21:55;;;;;;;12.20;6.80;;;;;;;9.49;62.78;101167.13;5001162;28;20102;-59
2021/03/25 06:24:53;;;;;;;12.13;7.13;;;;;;;9.63;62.58;101166.75;5000121;28;20390;-59
2021/03/25 06:27:49;;;;;;;10.17;5.87;;;;;;;9.62;62.40;101179.84;5002477;28;20057;-60
2021/03/25 06:30:29;;;;;;;9.50;5.33;;;;;;;9.44;63.03;101186.59;5005830;28;20433;-61
2021/03/25 06:33:03;;;;;;;11.77;6.63;;;;;;;9.40;62.80;101191.00;5011070;28;20084;-59
2021/03/25 06:35:38;;;;;;;8.43;4.90;;;;;;;9.20;62.81;101160.88;5004670;28;21170;-60
2021/03/25 06:38:14;;;;;;;9.00;5.13;;;;;;;9.25;63.20;101187.97;5002784;28;20120;-58
2021/03/25 06:40:53;;;;;;;14.80;6.33;;;;;;;9.23;63.07;101182.66;5001899;28;20049;-61
2021/03/25 06:43:45;;;;;;;13.27;5.77;;;;;;;9.24;63.10;101186.28;5007114;28;20085;-58
2021/03/25 06:46:33;;;;;;;8.57;6.17;;;;;;;9.20;63.29;101193.47;5009262;28;20042;-58
2021/03/25 06:49:07;;;;;;;10.23;5.57;;;;;;;9.15;63.55;101188.66;5000115;28;20077;-58
2021/03/25 06:51:35;;;;;;;11.70;6.27;;;;;;;9.19;63.43;101189.81;5007429;28;21989;-58
2021/03/25 06:54:11;;;;;;;13.37;5.43;;;;;;;9.17;63.67;101197.63;4990675;28;20061;-58
2021/03/25 06:56:41;;;;;;;12.80;6.23;;;;;;;9.15;64.06;101188.66;5000485;28;20086;-57
2021/03/25 06:59:15;;;;;;;14.65;6.47;;;;;;;9.17;64.33;101185.63;4998514;28;20053;-54
2021/03/25 07:01:44;;;;;;;14.37;7.23;;;;;;;9.21;64.35;101193.22;5003910;28;20169;-56
2021/03/25 07:04:22;;;;;;;11.40;6.82;;;;;;;9.33;64.30;101192.25;5006937;28;20042;-54
2021/03/25 07:06:50;;;;;;;11.20;7.07;;;;;;;9.41;63.86;101191.81;5003373;28;20491;-57
2021/03/25 07:09:29;;;;;;;11.47;7.03;;;;;;;9.56;63.70;101189.22;4995561;28;20043;-57
2021/03/25 07:12:02;;;;;;;11.23;6.10;;;;;;;9.61;63.74;101189.31;5003071;28;20506;-56
2021/03/25 07:14:41;;;;;;;13.47;6.63;;;;;;;9.73;63.59;101198.38;5002568;28;20046;-57
2021/03/25 07:17:10;;;;;;;10.70;4.97;;;;;;;9.73;63.74;101198.38;5003423;28;20050;-58
2021/03/25 07:19:38;;;;;;;8.80;6.07;;;;;;;9.76;63.65;101208.19;5000453;28;20487;-58
2021/03/25 07:22:17;;;;;;;6.97;4.27;;;;;;;9.80;63.67;101211.28;4992148;28;20041;-55
2021/03/25 07:24:44;;;;;;;13.52;6.07;;;;;;;9.99;63.34;101212.66;5000810;28;20444;-57
2021/03/25 07:27:12;;;;;;;12.10;7.20;;;;;;;10.25;63.16;101212.94;5008651;28;20859;-55
2021/03/25 07:29:43;;;;;;;13.70;7.30;;;;;;;10.58;62.56;101200.75;5000773;28;20124;-58
2021/03/25 07:32:10;;;;;;;13.20;6.20;;;;;;;10.76;62.21;101196.72;5002845;28;20134;-54
2021/03/25 07:34:38;;;;;;;12.77;7.40;;;;;;;11.14;61.78;101199.28;4984429;28;20050;-56
2021/03/25 07:37:09;;;;;;;15.60;7.43;;;;;;;11.58;61.50;101198.97;4998179;28;20137;-56
2021/03/25 07:39:40;;;;;;;9.40;6.18;;;;;;;12.04;60.84;101196.41;5002077;28;20049;-57
2021/03/25 07:42:08;;;;;;;14.87;8.73;;;;;;;12.44;60.21;101203.22;5000716;28;20046;-57
2021/03/25 07:44:41;;;;;;;9.07;6.33;;;;;;;12.79;59.37;101207.22;5006596;28;20487;-57
2021/03/25 07:47:34;;;;;;;10.17;6.20;;;;;;;13.14;58.56;101214.78;4992875;28;20042;-57
2021/03/25 07:50:35;;;;;;;12.07;7.40;;;;;;;13.26;58.09;101206.94;5008197;28;20046;-54
2021/03/25 07:53:27;;;;;;;10.97;7.03;;;;;;;13.44;57.73;101208.31;4963893;28;20628;-56
2021/03/25 07:56:09;;;;;;;10.57;6.73;;;;;;;13.63;57.37;101205.72;5005639;28;20093;-55
2021/03/25 07:58:38;;;;;;;10.73;6.80;;;;;;;13.95;56.69;101222.19;5004007;28;20132;-55
2021/03/25 08:01:19;;;;;;;9.90;6.03;;;;;;;14.03;55.99;101208.69;5007551;28;20041;-59
2021/03/25 08:03:54;;;;;;;16.73;7.27;;;;;;;14.04;55.72;101213.16;5006511;28;20072;-63
2021/03/25 08:06:26;;;;;;;12.70;5.20;;;;;;;13.93;54.95;101210.38;5006803;28;20058;-57
2021/03/25 08:09:08;;;;;;;10.83;5.83;;;;;;;13.88;54.86;101224.47;5009374;28;20038;-58
2021/03/25 08:11:53;;;;;;;9.03;5.53;;;;;;;13.98;54.71;101224.44;5008978;28;20245;-57
2021/03/25 08:14:32;;;;;;;19.77;6.80;;;;;;;14.23;54.24;101226.25;5006813;28;20127;-54
2021/03/25 08:17:11;;;;;;;11.83;6.97;;;;;;;14.27;53.84;101226.53;4998284;28;20049;-57
2021/03/25 08:20:02;;;;;;;9.87;6.30;;;;;;;14.35;53.44;101223.09;5002722;28;20045;-57
2021/03/25 08:22:41;;;;;;;10.67;5.53;;;;;;;14.27;53.26;101232.16;5001275;28;20074;-56
2021/03/25 08:25:33;;;;;;;8.47;6.00;;;;;;;14.26;53.23;101224.03;5013814;28;20049;-57
2021/03/25 08:28:26;;;;;;;11.47;6.17;;;;;;;14.40;53.18;101225.91;5008108;28;20046;-57
2021/03/25 08:31:17;;;;;;;13.47;7.40;;;;;;;14.65;52.80;101218.47;4998254;28;20395;-56
2021/03/25 08:34:05;;;;;;;11.67;6.83;;;;;;;15.11;52.35;101212.44;5005907;28;20762;-57
2021/03/25 08:37:01;;;;;;;10.73;7.13;;;;;;;15.63;51.65;101216.47;4998090;28;20053;-56
2021/03/25 08:39:54;;;;;;;13.27;6.73;;;;;;;16.08;50.80;101212.28;4995992;28;20050;-58
2021/03/25 08:42:28;;;;;;;13.80;6.07;;;;;;;16.41;50.14;101200.28;4978426;28;20057;-57
2021/03/25 08:45:01;;;;;;;12.23;6.80;;;;;;;16.99;49.56;101217.75;4994879;28;20046;-56
2021/03/25 08:47:58;;;;;;;11.37;6.27;;;;;;;17.32;48.96;101214.91;5009613;28;20101;-59
2021/03/25 08:50:42;;;;;;;9.07;6.73;;;;;;;17.70;48.57;101212.75;4980507;28;20046;-56
2021/03/25 08:53:20;;;;;;;12.27;7.73;;;;;;;17.95;47.83;101217.09;4997066;28;20466;-57
2021/03/25 08:55:50;;;;;;;12.35;6.93;;;;;;;18.27;47.65;101217.28;4977016;28;812701;-57
2021/03/25 08:58:22;;;;;;;;;;;;;;;18.34;48.35;101214.88;4999858;28;20125;-58
2021/03/25 09:00:52;;;;;;;18.45;8.63;;;;;;;18.90;46.94;101219.22;5008603;28;19921;-53
2021/03/25 09:03:21;;;;;;;16.67;6.32;;;;;;;19.24;46.07;101226.31;5006692;28;20049;-57
2021/03/25 09:06:14;;;;;;;16.40;7.10;;;;;;;19.63;45.75;101212.25;4998867;28;20093;-57
2021/03/25 09:08:43;;;;;;;12.75;7.03;;;;;;;20.13;44.72;101217.59;5003731;28;20056;-56
2021/03/25 09:11:16;;;;;;;9.63;6.47;;;;;;;20.34;43.99;101206.50;5007827;28;20060;-55
2021/03/25 09:13:47;;;;;;;11.20;6.85;;;;;;;20.42;43.88;101195.47;5006446;28;20303;-56
2021/03/25 09:16:21;;;;;;;11.57;7.25;;;;;;;20.64;43.53;101198.19;5002169;28;20054;-55
2021/03/25 09:18:49;;;;;;;14.55;6.78;;;;;;;21.08;42.87;101218.06;5007538;28;20045;-57
2021/03/25 09:21:26;;;;;;;10.65;6.70;;;;;;;21.28;42.21;101223.03;5006214;28;20825;-58
2021/03/25 09:23:58;;;;;;;12.57;7.00;;;;;;;21.25;42.03;101224.53;5005928;28;20060;-55
2021/03/25 09:26:27;;;;;;;11.02;6.97;;;;;;;21.35;41.85;101228.25;5012386;28;20112;-58
2021/03/25 09:28:59;;;;;;;12.02;6.35;;;;;;;21.42;41.57;101229.38;4993677;28;20048;-57
2021/03/25 09:31:38;;;;;;;8.73;5.57;;;;;;;21.53;41.25;101213.63;5006964;28;20054;-56
2021/03/25 09:34:10;;;;;;;10.82;6.57;;;;;;;21.94;40.54;101209.31;5006837;28;20054;-58
2021/03/25 09:36:36;;;;;;;10.68;7.18;;;;;;;22.35;40.04;101216.31;5014316;28;20421;-53
2021/03/25 09:39:28;;;;;;;14.27;6.55;;;;;;;22.59;39.33;101204.25;5003354;28;20082;-57
2021/03/25 09:41:59;;;;;;;10.57;6.15;;;;;;;22.92;38.89;101206.34;5007021;28;20164;-58
2021/03/25 09:44:46;;;;;;;12.68;7.35;;;;;;;23.11;38.55;101220.09;5004104;28;20057;-56
2021/03/25 09:47:32;;;;;;;12.82;6.75;;;;;;;23.11;37.88;101215.25;5004767;28;20077;-58
2021/03/25 09:50:02;;;;;;;11.48;6.75;;;;;;;23.29;37.80;101215.91;5002724;28;20046;-57
2021/03/25 09:52:53;;;;;;;7.60;5.30;;;;;;;23.58;37.43;101220.59;5004142;28;20045;-57
2021/03/25 09:55:25;;;;;;;9.63;6.10;;;;;;;23.92;36.77;101214.88;4996331;28;20054;-56
2021/03/25 09:57:52;;;;;;;8.03;5.30;;;;;;;24.15;36.28;101213.22;5008155;28;20049;-56
2021/03/25 10:00:28;;;;;;;9.10;5.03;;;;;;;24.25;35.57;101211.91;4998618;28;20292;-56
2021/03/25 10:02:56;;;;;;;13.52;5.22;;;;;;;24.53;34.92;101212.03;5008352;28;20055;-57
2021/03/25 10:05:27;;;;;;;8.75;5.13;;;;;;;24.63;34.73;101217.22;5006244;28;20096;-56
2021/03/25 10:07:59;;;;;;;7.80;5.28;;;;;;;24.60;33.93;101206.53;5004520;28;20046;-58
2021/03/25 10:10:46;;;;;;;10.10;5.43;;;;;;;24.51;34.14;101202.97;5002509;28;20042;-58
2021/03/25 10:13:17;;;;;;;10.25;6.18;;;;;;;24.58;34.33;101209.75;5006527;28;20420;-58
2021/03/25 10:16:01;;;;;;;9.68;5.50;;;;;;;24.82;34.46;101199.47;5006355;28;20042;-57
2021/03/25 10:18:27;;;;;;;8.63;5.40;;;;;;;25.03;33.63;101217.25;5002409;28;20505;-58
2021/03/25 10:21:07;;;;;;;9.55;5.70;;;;;;;25.02;33.33;101211.88;5002251;28;20042;-57
2021/03/25 10:23:59;;;;;;;13.60;6.57;;;;;;;25.15;33.61;101199.22;5011789;28;20041;-57
2021/03/25 10:26:33;;;;;;;11.18;5.78;;;;;;;25.30;32.91;101191.91;4999791;28;20129;-58
2021/03/25 10:29:03;;;;;;;9.63;6.45;;;;;;;25.41;32.58;101190.16;5002588;28;20080;-55
2021/03/25 10:31:52;;;;;;;14.38;7.72;;;;;;;25.41;32.51;101189.34;5002703;28;20467;-56
2021/03/25 10:34:26;;;;;;;;;;;;;;;24.92;34.34;101183.81;5001915;28;20112;-59
2021/03/25 10:37:03;;;;;;;11.07;7.25;;;;;;;25.25;32.52;101190.13;5006433;28;19968;-60
2021/03/25 10:39:42;;;;;;;13.30;7.43;;;;;;;25.40;32.26;101190.50;5006490;28;20052;-60
2021/03/25 10:42:25;;;;;;;12.45;6.65;;;;;;;25.36;32.88;101181.84;5005944;28;20139;-60
2021/03/25 10:44:53;;;;;;;16.05;7.28;;;;;;;25.49;32.14;101174.03;5009780;28;20050;-59
2021/03/25 10:47:24;;;;;;;13.88;6.90;;;;;;;25.30;31.99;101163.31;5003413;28;20092;-59
2021/03/25 10:49:59;;;;;;;15.27;7.05;;;;;;;25.41;31.96;101175.03;5011185;28;20483;-58
2021/03/25 10:52:32;;;;;;;14.25;6.55;;;;;;;25.50;32.47;101175.69;5007865;28;20446;-58
2021/03/25 10:55:05;;;;;;;9.10;7.07;;;;;;;25.73;31.46;101175.88;5013947;28;20108;-57
2021/03/25 10:57:31;;;;;;;10.40;6.85;;;;;;;25.68;31.99;101188.44;4997281;28;20056;-59
2021/03/25 11:00:10;;;;;;;11.40;7.78;;;;;;;25.37;32.09;101174.94;5004366;28;20410;-59
2021/03/25 11:02:40;;;;;;;13.82;7.15;;;;;;;25.40;31.88;101164.78;5008738;28;20050;-58
2021/03/25 11:05:19;;;;;;;9.98;7.00;;;;;;;25.59;31.87;101172.66;5002703;28;20057;-59
2021/03/25 11:07:53;;;;;;;15.25;7.47;;;;;;;25.40;32.14;101170.50;5003129;28;20049;-60
2021/03/25 11:10:28;;;;;;;16.75;8.13;;;;;;;25.50;31.76;101178.53;4999230;28;20046;-61
2021/03/25 11:13:17;;;;;;;16.45;7.90;;;;;;;25.43;32.31;101164.06;5000453;28;20068;-63
2021/03/25 11:16:21;;;;;;;13.25;7.70;;;;;;;25.52;32.28;101164.72;5003692;28;20055;-62
2021/03/25 11:18:53;;;;;;;14.15;8.90;;;;;;;25.98;31.60;101165.09;4995355;28;20050;-63
2021/03/25 11:21:42;;;;;;;14.40;9.18;;;;;;;25.99;31.55;101159.03;5005560;28;20042;-61
2021/03/25 11:24:26;;;;;;;18.63;8.57;;;;;;;26.28;31.56;101153.16;5004426;28;20437;-59
2021/03/25 11:27:06;;;;;;;19.45;8.00;;;;;;;26.45;31.66;101165.00;4996795;28;20050;-59
2021/03/25 11:29:38;;;;;;;16.23;8.05;;;;;;;26.60;31.34;101156.75;5005385;28;20070;-59
2021/03/25 11:32:13;;;;;;;18.58;8.25;;;;;;;26.63;31.10;101148.28;5001702;28;20124;-60
2021/03/25 11:34:42;;;;;;;11.00;7.60;;;;;;;26.89;31.10;101150.44;4998623;28;20054;-60
2021/03/25 11:37:33;;;;;;;15.77;8.55;;;;;;;26.78;31.24;101148.56;5006956;28;20052;-59
2021/03/25 11:40:06;;;;;;;19.55;8.70;;;;;;;27.20;30.77;101142.06;5005195;28;20058;-60
2021/03/25 11:42:33;;;;;;;16.88;8.60;;;;;;;27.20;30.37;101142.06;5000190;28;20121;-58
2021/03/25 11:45:00;;;;;;;12.80;8.48;;;;;;;27.24;29.71;101134.34;5006547;28;20057;-61
2021/03/25 11:47:35;;;;;;;17.08;9.32;;;;;;;27.45;29.65;101145.41;5008823;28;20142;-61
2021/03/25 11:50:26;;;;;;;13.02;7.68;;;;;;;27.54;29.87;101143.13;5006349;28;20073;-60
2021/03/25 11:53:04;;;;;;;12.48;6.97;;;;;;;27.55;29.38;101102.56;5001056;28;20462;-59
2021/03/25 11:55:42;;;;;;;15.30;7.93;;;;;;;28.03;29.09;101128.78;4999916;28;20053;-62
2021/03/25 11:58:21;;;;;;;11.00;6.93;;;;;;;28.50;28.45;101118.84;4998651;28;20050;-61
2021/03/25 12:00:56;;;;;;;12.90;6.60;;;;;;;28.69;27.54;101126.50;4992521;28;20053;-60
2021/03/25 12:03:28;;;;;;;11.23;6.88;;;;;;;28.76;27.57;101114.28;5000982;28;20059;-58
2021/03/25 12:05:55;;;;;;;7.93;5.95;;;;;;;29.00;27.08;101125.25;5008938;28;20073;-57